This is the latest recevied weather packets stored in our database for station/object WO5CID. If no packets are shown the sender has not sent any weather packets the latest 10 day(s).
| Time | Temp. | Humidity | Pressure | Rain* | Wind** | Luminosity | Snow |
|---|---|---|---|---|---|---|---|
| 1777676969 | 25.56° C | 76% | 1009.6 hPa | 0 mm | - | 7 W/m² | - |
| 1777676668 | 26.11° C | 71% | 1009.7 hPa | 0 mm | - | 3 W/m² | - |
| 1777676365 | 27.22° C | 63% | 1009.3 hPa | 0 mm | - | 4 W/m² | - |
| 1777676063 | 27.78° C | 58% | 1009.4 hPa | 0 mm | - | 4 W/m² | - |
| 1777675758 | 27.78° C | 57% | 1009.2 hPa | 0 mm | - | 8 W/m² | - |
| 1777675456 | 27.78° C | 55% | 1009.3 hPa | 0 mm | - | 9 W/m² | - |
| 1777675153 | 28.33° C | 55% | 1009.3 hPa | 0 mm | - | 6 W/m² | - |
| 1777674849 | 28.33° C | 55% | 1009.3 hPa | 0 mm | - | 8 W/m² | - |
| 1777674545 | 28.33° C | 54% | 1009.2 hPa | 0 mm | - | 12 W/m² | - |
| 1777674243 | 28.89° C | 53% | 1009.2 hPa | 0 mm | - | 17 W/m² | - |
| 1777673939 | 28.89° C | 53% | 1009.1 hPa | 0 mm | - | 29 W/m² | - |
| 1777673636 | 29.44° C | 52% | 1009 hPa | 0 mm | - | 45 W/m² | - |
| 1777673334 | 29.44° C | 50% | 1008.9 hPa | 0 mm | - | 58 W/m² | - |
| 1777673031 | 30° C | 49% | 1008.8 hPa | 0 mm | - | 87 W/m² | - |
| 1777672727 | 30.56° C | 48% | 1008.6 hPa | 0 mm | - | 84 W/m² | - |
| 1777672424 | 31.11° C | 46% | 1008.7 hPa | 0 mm | - | 71 W/m² | - |
| 1777672119 | 31.11° C | 42% | 1008.8 hPa | 0 mm | - | 69 W/m² | - |
| 1777671815 | 31.67° C | 42% | 1008.6 hPa | 0 mm | - | 89 W/m² | - |
| 1777671511 | 32.22° C | 40% | 1008.9 hPa | 0 mm | - | 120 W/m² | - |
| 1777671207 | 33.33° C | 38% | 1008.6 hPa | 0 mm | - | 154 W/m² | - |
| 1777670903 | 33.33° C | 37% | 1008.7 hPa | 0 mm | - | 403 W/m² | - |
| 1777670600 | 33.33° C | 37% | 1008.5 hPa | 0 mm | - | 394 W/m² | - |
| 1777670296 | 33.33° C | 38% | 1008.4 hPa | 0 mm | - | 435 W/m² | - |
| 1777669994 | 32.78° C | 39% | 1008.6 hPa | 0 mm | - | 496 W/m² | - |
| 1777669690 | 32.78° C | 37% | 1008.7 hPa | 0 mm | - | 526 W/m² | - |
* Rain latest hour (hover to see other rain measurements)
** Current wind speed in m/s (hover to see current wind gust speed)